Terminal Aerodrome Forecast
Issued by NWS

Home | Current Version | Previous Version | Text Only | Print | Product List | Glossary On
Versions: 1 2 3 4 5 6 7 8 9 10 11 12 13 14 15 16 17 18 19 20 21
000
FTUS46 KMFR 272326
TAFOTH
TAF
KOTH 272326Z 2800/2824 28010KT P6SM SCT250
     FM280300 27006KT P6SM OVC012
     FM280800 18004KT P6SM OVC006
     FM281200 19008KT 4SM BR OVC006
     FM281600 33010KT 5SM -RA OVC008
     FM281900 33014G20KT P6SM OVC009=

USA.gov is the U.S. government's official web portal to all federal, state and local government web resources and services.